MMMY/MTY METAR and TAF weather

Enter ICAO airport designator
Station Type Date Time Source
MMMY METAR 2019/11/21 02:40 UTC NOAA

MMMY 210240Z 12011KT 5SM FEW050 23/18 A2987 RMK SLP/// 5//// 9// 8/500 HZY


Station Type Date Time Source
MMMY Decoded METAR 2019/11/21 02:40 UTC NOAA

Monterrey / Gen Maria, Mexico (MMMY) 25-47N 100-06W
Nov 20, 2019 - 09:40 PM EST / 2019.11.21 0240 UTC
Wind: from the ESE (120 degrees) at 13 MPH (11 KT):0
Visibility: 5 mile(s):0
Sky conditions: mostly clear
Temperature: 73 F (23 C)
Dew Point: 64 F (18 C)
Relative Humidity: 73%
Pressure (altimeter): 29.87 in. Hg (1011 hPa)
ob: MMMY 210240Z 12011KT 5SM FEW050 23/18 A2987 RMK SLP/// 5//// 9// 8/500 HZY
cycle: 2

Station Type Date Time Source
MMMY TAF 2019/11/20 18:53 UTC NOAA

TAF COR MMMY 201746Z 2018/2124 12005KT 4SM HZ OVC012 TX26/2022Z TN18/2113Z
FM201900 12008KT 6SM HZ BKN015 BKN250
FM202000 12012KT 6SM HZ SCT020 BKN250
BECMG 2101/2102 12005KT
FM210600 00000KT 5SM HZ BKN010 OVC020
FM211000 00000KT 3SM BR HZ BKN005 OVC010
TEMPO 2111/2115 1/2SM FG VV002
FM211600 12005KT 4SM HZ SCT008 BKN015 BKN250
BECMG 2120/2121 12012KT SCT030 BKN250

Example: see airport list